sensor_id;sensor_type;location;lat;lon;timestamp;temperature;humidity
27423;DHT22;14878;50.778;0.258;2022-10-16T00:00:55;14.90;99.90
27423;DHT22;14878;50.778;0.258;2022-10-16T00:01:56;14.90;99.90
27423;DHT22;14878;50.778;0.258;2022-10-16T00:02:57;14.80;99.90
27423;DHT22;14878;50.778;0.258;2022-10-16T00:03:59;14.90;99.90
27423;DHT22;14878;50.778;0.258;2022-10-16T00:05:00;14.80;99.90
27423;DHT22;14878;50.778;0.258;2022-10-16T00:06:01;14.80;99.90
27423;DHT22;14878;50.778;0.258;2022-10-16T00:07:02;14.80;99.90
27423;DHT22;14878;50.778;0.258;2022-10-16T00:08:02;14.80;99.90
27423;DHT22;14878;50.778;0.258;2022-10-16T00:09:04;14.70;99.90
27423;DHT22;14878;50.778;0.258;2022-10-16T00:10:05;14.50;99.90
27423;DHT22;14878;50.778;0.258;2022-10-16T00:11:12;14.50;99.90
27423;DHT22;14878;50.778;0.258;2022-10-16T00:12:14;14.60;99.90
27423;DHT22;14878;50.778;0.258;2022-10-16T00:13:14;14.60;99.90
27423;DHT22;14878;50.778;0.258;2022-10-16T00:14:17;12.80;99.90
27423;DHT22;14878;50.778;0.258;2022-10-16T00:15:18;14.60;99.90
27423;DHT22;14878;50.778;0.258;2022-10-16T00:16:19;14.60;99.90
27423;DHT22;14878;50.778;0.258;2022-10-16T00:17:20;14.60;99.90
27423;DHT22;14878;50.778;0.258;2022-10-16T00:18:21;14.60;99.90
27423;DHT22;14878;50.778;0.258;2022-10-16T00:19:22;14.60;99.90
27423;DHT22;14878;50.778;0.258;2022-10-16T00:20:23;14.80;99.90
27423;DHT22;14878;50.778;0.258;2022-10-16T00:21:26;14.70;99.90
27423;DHT22;14878;50.778;0.258;2022-10-16T00:22:27;14.70;99.90
27423;DHT22;14878;50.778;0.258;2022-10-16T00:23:28;14.80;99.90
27423;DHT22;14878;50.778;0.258;2022-10-16T00:24:29;14.80;99.90
27423;DHT22;14878;50.778;0.258;2022-10-16T00:25:30;14.70;99.90
27423;DHT22;14878;50.778;0.258;2022-10-16T00:26:34;14.70;99.90
27423;DHT22;14878;50.778;0.258;2022-10-16T00:27:35;14.70;99.90
27423;DHT22;14878;50.778;0.258;2022-10-16T00:28:36;14.80;99.90
27423;DHT22;14878;50.778;0.258;2022-10-16T00:29:36;14.80;99.90
27423;DHT22;14878;50.778;0.258;2022-10-16T00:30:38;14.90;99.90
27423;DHT22;14878;50.778;0.258;2022-10-16T00:31:39;14.80;99.90
27423;DHT22;14878;50.778;0.258;2022-10-16T00:32:40;14.90;99.90
27423;DHT22;14878;50.778;0.258;2022-10-16T00:33:41;14.90;99.90
27423;DHT22;14878;50.778;0.258;2022-10-16T00:34:42;16.70;99.90
27423;DHT22;14878;50.778;0.258;2022-10-16T00:35:43;14.90;99.90
27423;DHT22;14878;50.778;0.258;2022-10-16T00:36:44;14.90;99.90
27423;DHT22;14878;50.778;0.258;2022-10-16T00:37:45;14.80;99.90
27423;DHT22;14878;50.778;0.258;2022-10-16T00:38:45;15.00;99.90
27423;DHT22;14878;50.778;0.258;2022-10-16T00:39:46;14.80;99.90
27423;DHT22;14878;50.778;0.258;2022-10-16T00:40:47;14.80;99.90
27423;DHT22;14878;50.778;0.258;2022-10-16T00:41:48;14.90;99.90
27423;DHT22;14878;50.778;0.258;2022-10-16T00:42:49;14.90;99.90
27423;DHT22;14878;50.778;0.258;2022-10-16T00:43:52;15.00;99.90
27423;DHT22;14878;50.778;0.258;2022-10-16T00:44:55;12.20;99.90
27423;DHT22;14878;50.778;0.258;2022-10-16T00:45:57;14.80;99.90
27423;DHT22;14878;50.778;0.258;2022-10-16T00:46:58;14.90;99.90
27423;DHT22;14878;50.778;0.258;2022-10-16T00:47:59;14.90;99.90
27423;DHT22;14878;50.778;0.258;2022-10-16T00:51:07;14.80;99.90
27423;DHT22;14878;50.778;0.258;2022-10-16T00:52:09;14.80;99.90
27423;DHT22;14878;50.778;0.258;2022-10-16T00:53:10;16.90;99.90
27423;DHT22;14878;50.778;0.258;2022-10-16T00:54:16;15.00;99.90
27423;DHT22;14878;50.778;0.258;2022-10-16T00:55:18;15.00;99.90
27423;DHT22;14878;50.778;0.258;2022-10-16T00:56:19;15.10;99.90
27423;DHT22;14878;50.778;0.258;2022-10-16T00:57:21;15.00;99.90
27423;DHT22;14878;50.778;0.258;2022-10-16T00:58:22;15.00;99.90
27423;DHT22;14878;50.778;0.258;2022-10-16T00:59:30;14.90;99.90
27423;DHT22;14878;50.778;0.258;2022-10-16T01:00:31;14.90;99.90
27423;DHT22;14878;50.778;0.258;2022-10-16T01:01:32;14.90;99.90
27423;DHT22;14878;50.778;0.258;2022-10-16T01:02:33;14.80;99.90
27423;DHT22;14878;50.778;0.258;2022-10-16T01:03:36;14.80;99.90
27423;DHT22;14878;50.778;0.258;2022-10-16T01:04:46;14.70;99.90
27423;DHT22;14878;50.778;0.258;2022-10-16T01:08:37;14.50;99.90
27423;DHT22;14878;50.778;0.258;2022-10-16T01:11:01;14.30;99.90
27423;DHT22;14878;50.778;0.258;2022-10-16T01:12:27;14.20;99.90
27423;DHT22;14878;50.778;0.258;2022-10-16T01:13:35;14.10;99.90
27423;DHT22;14878;50.778;0.258;2022-10-16T01:15:02;14.00;99.90
27423;DHT22;14878;50.778;0.258;2022-10-16T01:16:25;13.90;99.90
27423;DHT22;14878;50.778;0.258;2022-10-16T01:17:48;13.90;99.90
27423;DHT22;14878;50.778;0.258;2022-10-16T01:19:25;13.80;99.90
27423;DHT22;14878;50.778;0.258;2022-10-16T01:20:29;13.90;99.90
27423;DHT22;14878;50.778;0.258;2022-10-16T01:21:38;14.40;99.90
27423;DHT22;14878;50.778;0.258;2022-10-16T01:24:17;13.80;99.90
27423;DHT22;14878;50.778;0.258;2022-10-16T01:28:08;12.10;99.90
27423;DHT22;14878;50.778;0.258;2022-10-16T01:30:40;13.80;99.90
27423;DHT22;14878;50.778;0.258;2022-10-16T01:31:48;12.30;99.90
27423;DHT22;14878;50.778;0.258;2022-10-16T01:32:56;13.80;99.90
27423;DHT22;14878;50.778;0.258;2022-10-16T01:34:16;13.90;99.90
27423;DHT22;14878;50.778;0.258;2022-10-16T01:35:29;13.90;99.90
27423;DHT22;14878;50.778;0.258;2022-10-16T01:36:38;13.90;99.90
27423;DHT22;14878;50.778;0.258;2022-10-16T01:38:03;13.90;99.90
27423;DHT22;14878;50.778;0.258;2022-10-16T01:39:06;14.00;99.90
27423;DHT22;14878;50.778;0.258;2022-10-16T01:40:13;14.00;99.90
27423;DHT22;14878;50.778;0.258;2022-10-16T01:41:27;14.10;99.90
27423;DHT22;14878;50.778;0.258;2022-10-16T01:42:40;14.00;99.90
27423;DHT22;14878;50.778;0.258;2022-10-16T01:44:09;14.00;99.90
27423;DHT22;14878;50.778;0.258;2022-10-16T01:45:13;14.10;99.90
27423;DHT22;14878;50.778;0.258;2022-10-16T01:46:18;14.10;99.90
27423;DHT22;14878;50.778;0.258;2022-10-16T01:47:23;15.10;99.90
27423;DHT22;14878;50.778;0.258;2022-10-16T01:48:25;14.10;99.90
27423;DHT22;14878;50.778;0.258;2022-10-16T01:49:32;14.10;99.90
27423;DHT22;14878;50.778;0.258;2022-10-16T01:50:37;14.10;99.90
27423;DHT22;14878;50.778;0.258;2022-10-16T01:51:42;14.00;99.90
27423;DHT22;14878;50.778;0.258;2022-10-16T01:52:48;14.00;99.90
27423;DHT22;14878;50.778;0.258;2022-10-16T01:53:53;14.00;99.90
27423;DHT22;14878;50.778;0.258;2022-10-16T01:54:55;14.10;99.90
27423;DHT22;14878;50.778;0.258;2022-10-16T01:55:58;13.90;99.90
27423;DHT22;14878;50.778;0.258;2022-10-16T01:56:59;14.00;99.90
27423;DHT22;14878;50.778;0.258;2022-10-16T01:58:03;13.90;99.90
27423;DHT22;14878;50.778;0.258;2022-10-16T01:59:10;13.90;99.90
27423;DHT22;14878;50.778;0.258;2022-10-16T02:00:13;13.90;99.90
27423;DHT22;14878;50.778;0.258;2022-10-16T02:01:17;14.00;99.90
27423;DHT22;14878;50.778;0.258;2022-10-16T02:02:20;13.90;99.90
27423;DHT22;14878;50.778;0.258;2022-10-16T02:03:22;13.90;99.90
27423;DHT22;14878;50.778;0.258;2022-10-16T02:04:27;13.80;99.90
27423;DHT22;14878;50.778;0.258;2022-10-16T02:05:34;13.90;99.90
27423;DHT22;14878;50.778;0.258;2022-10-16T02:06:37;13.90;99.90
27423;DHT22;14878;50.778;0.258;2022-10-16T02:07:38;13.90;99.90
27423;DHT22;14878;50.778;0.258;2022-10-16T02:08:39;14.00;99.90
27423;DHT22;14878;50.778;0.258;2022-10-16T02:09:44;14.20;99.90
27423;DHT22;14878;50.778;0.258;2022-10-16T02:10:45;14.00;99.90
27423;DHT22;14878;50.778;0.258;2022-10-16T02:11:46;14.00;99.90
27423;DHT22;14878;50.778;0.258;2022-10-16T02:14:16;14.00;99.90
27423;DHT22;14878;50.778;0.258;2022-10-16T02:15:17;14.00;99.90
27423;DHT22;14878;50.778;0.258;2022-10-16T02:16:18;13.90;99.90
27423;DHT22;14878;50.778;0.258;2022-10-16T02:17:20;13.90;99.90
27423;DHT22;14878;50.778;0.258;2022-10-16T02:18:21;14.10;99.90
27423;DHT22;14878;50.778;0.258;2022-10-16T02:19:22;13.90;99.90
27423;DHT22;14878;50.778;0.258;2022-10-16T02:20:28;14.00;99.90
27423;DHT22;14878;50.778;0.258;2022-10-16T02:22:43;14.00;99.90
27423;DHT22;14878;50.778;0.258;2022-10-16T02:23:54;14.00;99.90
27423;DHT22;14878;50.778;0.258;2022-10-16T02:26:15;14.00;99.90
27423;DHT22;14878;50.778;0.258;2022-10-16T02:28:45;14.00;99.90
27423;DHT22;14878;50.778;0.258;2022-10-16T02:29:52;14.20;99.90
27423;DHT22;14878;50.778;0.258;2022-10-16T02:31:03;14.20;99.90
27423;DHT22;14878;50.778;0.258;2022-10-16T02:32:07;14.20;99.90
27423;DHT22;14878;50.778;0.258;2022-10-16T02:33:10;14.20;99.90
27423;DHT22;14878;50.778;0.258;2022-10-16T02:34:14;14.20;99.90
27423;DHT22;14878;50.778;0.258;2022-10-16T02:35:18;14.10;99.90
27423;DHT22;14878;50.778;0.258;2022-10-16T02:36:20;14.10;99.90
27423;DHT22;14878;50.778;0.258;2022-10-16T02:37:21;14.20;99.90
27423;DHT22;14878;50.778;0.258;2022-10-16T02:38:23;14.10;99.90
27423;DHT22;14878;50.778;0.258;2022-10-16T02:39:27;14.10;99.90
27423;DHT22;14878;50.778;0.258;2022-10-16T02:40:28;14.10;99.90
27423;DHT22;14878;50.778;0.258;2022-10-16T02:41:30;13.30;99.90
27423;DHT22;14878;50.778;0.258;2022-10-16T02:42:35;14.10;99.90
27423;DHT22;14878;50.778;0.258;2022-10-16T02:43:36;13.50;99.90
27423;DHT22;14878;50.778;0.258;2022-10-16T02:44:37;14.00;99.90
27423;DHT22;14878;50.778;0.258;2022-10-16T02:45:38;14.10;99.90
27423;DHT22;14878;50.778;0.258;2022-10-16T02:46:38;14.10;99.90
27423;DHT22;14878;50.778;0.258;2022-10-16T02:47:39;14.10;99.90
27423;DHT22;14878;50.778;0.258;2022-10-16T02:48:40;14.10;99.90
27423;DHT22;14878;50.778;0.258;2022-10-16T02:49:41;14.10;99.90
27423;DHT22;14878;50.778;0.258;2022-10-16T02:50:41;14.20;99.90
27423;DHT22;14878;50.778;0.258;2022-10-16T02:51:42;14.20;99.90
27423;DHT22;14878;50.778;0.258;2022-10-16T02:52:43;14.10;99.90
27423;DHT22;14878;50.778;0.258;2022-10-16T02:53:43;14.20;99.90
27423;DHT22;14878;50.778;0.258;2022-10-16T02:54:44;14.20;99.90
27423;DHT22;14878;50.778;0.258;2022-10-16T02:55:45;14.20;99.90
27423;DHT22;14878;50.778;0.258;2022-10-16T02:56:46;14.30;99.90
27423;DHT22;14878;50.778;0.258;2022-10-16T02:57:47;14.40;99.90
27423;DHT22;14878;50.778;0.258;2022-10-16T02:58:48;14.30;99.90
27423;DHT22;14878;50.778;0.258;2022-10-16T02:59:48;14.30;99.90
27423;DHT22;14878;50.778;0.258;2022-10-16T03:00:49;14.30;99.90
27423;DHT22;14878;50.778;0.258;2022-10-16T03:01:50;14.30;99.90
27423;DHT22;14878;50.778;0.258;2022-10-16T03:02:51;14.30;99.90
27423;DHT22;14878;50.778;0.258;2022-10-16T03:03:52;14.30;99.90
27423;DHT22;14878;50.778;0.258;2022-10-16T03:04:52;14.30;99.90
27423;DHT22;14878;50.778;0.258;2022-10-16T03:05:53;14.30;99.90
27423;DHT22;14878;50.778;0.258;2022-10-16T03:06:54;14.30;99.90
27423;DHT22;14878;50.778;0.258;2022-10-16T03:07:54;14.30;99.90
27423;DHT22;14878;50.778;0.258;2022-10-16T03:08:56;14.20;99.90
27423;DHT22;14878;50.778;0.258;2022-10-16T03:09:56;14.30;99.90
27423;DHT22;14878;50.778;0.258;2022-10-16T03:11:00;14.30;99.90
27423;DHT22;14878;50.778;0.258;2022-10-16T03:12:01;14.30;99.90
27423;DHT22;14878;50.778;0.258;2022-10-16T03:13:02;14.40;99.90
27423;DHT22;14878;50.778;0.258;2022-10-16T03:14:03;14.30;99.90
27423;DHT22;14878;50.778;0.258;2022-10-16T03:15:04;14.30;99.90
27423;DHT22;14878;50.778;0.258;2022-10-16T03:16:05;14.30;99.90
27423;DHT22;14878;50.778;0.258;2022-10-16T03:17:06;14.30;99.90
27423;DHT22;14878;50.778;0.258;2022-10-16T03:18:07;14.30;99.90
27423;DHT22;14878;50.778;0.258;2022-10-16T03:19:07;14.30;99.90
27423;DHT22;14878;50.778;0.258;2022-10-16T03:20:08;14.30;99.90
27423;DHT22;14878;50.778;0.258;2022-10-16T03:21:09;14.30;99.90
27423;DHT22;14878;50.778;0.258;2022-10-16T03:22:10;14.30;99.90
27423;DHT22;14878;50.778;0.258;2022-10-16T03:23:11;14.30;99.90
27423;DHT22;14878;50.778;0.258;2022-10-16T03:24:12;14.00;99.90
27423;DHT22;14878;50.778;0.258;2022-10-16T03:25:13;13.70;99.90
27423;DHT22;14878;50.778;0.258;2022-10-16T03:26:13;13.70;99.90
27423;DHT22;14878;50.778;0.258;2022-10-16T03:27:14;13.30;99.90
27423;DHT22;14878;50.778;0.258;2022-10-16T03:28:15;13.30;99.90
27423;DHT22;14878;50.778;0.258;2022-10-16T03:29:16;13.10;99.90
27423;DHT22;14878;50.778;0.258;2022-10-16T03:30:16;13.00;99.90
27423;DHT22;14878;50.778;0.258;2022-10-16T03:31:17;13.10;99.90
27423;DHT22;14878;50.778;0.258;2022-10-16T03:32:18;13.00;99.90
27423;DHT22;14878;50.778;0.258;2022-10-16T03:33:20;13.00;99.90
27423;DHT22;14878;50.778;0.258;2022-10-16T03:34:21;13.00;99.90
27423;DHT22;14878;50.778;0.258;2022-10-16T03:35:23;12.90;99.90
27423;DHT22;14878;50.778;0.258;2022-10-16T03:36:24;12.90;99.90
27423;DHT22;14878;50.778;0.258;2022-10-16T03:37:25;12.90;99.90
27423;DHT22;14878;50.778;0.258;2022-10-16T03:38:26;13.00;99.90
27423;DHT22;14878;50.778;0.258;2022-10-16T03:39:26;12.80;99.90
27423;DHT22;14878;50.778;0.258;2022-10-16T03:40:27;12.90;99.90
27423;DHT22;14878;50.778;0.258;2022-10-16T03:41:28;12.90;99.90
27423;DHT22;14878;50.778;0.258;2022-10-16T03:42:29;12.90;99.90
27423;DHT22;14878;50.778;0.258;2022-10-16T03:43:30;13.00;99.90
27423;DHT22;14878;50.778;0.258;2022-10-16T03:44:30;13.00;99.90
27423;DHT22;14878;50.778;0.258;2022-10-16T03:45:31;12.90;99.90
27423;DHT22;14878;50.778;0.258;2022-10-16T03:46:32;13.00;99.90
27423;DHT22;14878;50.778;0.258;2022-10-16T03:47:32;13.00;99.90
27423;DHT22;14878;50.778;0.258;2022-10-16T03:48:33;13.10;99.90
27423;DHT22;14878;50.778;0.258;2022-10-16T03:49:34;13.00;99.90
27423;DHT22;14878;50.778;0.258;2022-10-16T03:50:35;13.00;99.90
27423;DHT22;14878;50.778;0.258;2022-10-16T03:51:36;13.10;99.90
27423;DHT22;14878;50.778;0.258;2022-10-16T03:52:37;13.10;99.90
27423;DHT22;14878;50.778;0.258;2022-10-16T03:53:39;13.10;99.90
27423;DHT22;14878;50.778;0.258;2022-10-16T03:54:40;13.20;99.90
27423;DHT22;14878;50.778;0.258;2022-10-16T03:55:43;13.40;99.90
27423;DHT22;14878;50.778;0.258;2022-10-16T03:56:45;13.30;99.90
27423;DHT22;14878;50.778;0.258;2022-10-16T03:57:45;13.30;99.90
27423;DHT22;14878;50.778;0.258;2022-10-16T03:58:46;13.30;99.90
27423;DHT22;14878;50.778;0.258;2022-10-16T03:59:47;13.30;99.90
27423;DHT22;14878;50.778;0.258;2022-10-16T04:00:48;13.20;99.90
27423;DHT22;14878;50.778;0.258;2022-10-16T04:01:48;13.20;99.90
27423;DHT22;14878;50.778;0.258;2022-10-16T04:02:49;13.20;99.90
27423;DHT22;14878;50.778;0.258;2022-10-16T04:03:50;13.10;99.90
27423;DHT22;14878;50.778;0.258;2022-10-16T04:04:51;13.30;99.90
27423;DHT22;14878;50.778;0.258;2022-10-16T04:05:52;13.00;99.90
27423;DHT22;14878;50.778;0.258;2022-10-16T04:06:52;13.10;99.90
27423;DHT22;14878;50.778;0.258;2022-10-16T04:07:53;13.10;99.90
27423;DHT22;14878;50.778;0.258;2022-10-16T04:08:55;13.00;99.90
27423;DHT22;14878;50.778;0.258;2022-10-16T04:09:56;13.00;99.90
27423;DHT22;14878;50.778;0.258;2022-10-16T04:10:59;13.10;99.90
27423;DHT22;14878;50.778;0.258;2022-10-16T04:11:59;13.10;99.90
27423;DHT22;14878;50.778;0.258;2022-10-16T04:13:00;13.00;99.90
27423;DHT22;14878;50.778;0.258;2022-10-16T04:14:03;13.10;99.90
27423;DHT22;14878;50.778;0.258;2022-10-16T04:15:04;13.10;99.90
27423;DHT22;14878;50.778;0.258;2022-10-16T04:16:05;13.00;99.90
27423;DHT22;14878;50.778;0.258;2022-10-16T04:17:06;13.20;99.90
27423;DHT22;14878;50.778;0.258;2022-10-16T04:18:07;13.20;99.90
27423;DHT22;14878;50.778;0.258;2022-10-16T04:19:09;13.20;99.90
27423;DHT22;14878;50.778;0.258;2022-10-16T04:20:10;13.10;99.90
27423;DHT22;14878;50.778;0.258;2022-10-16T04:21:10;13.20;99.90
27423;DHT22;14878;50.778;0.258;2022-10-16T04:22:11;13.30;99.90
27423;DHT22;14878;50.778;0.258;2022-10-16T04:23:12;13.30;99.90
27423;DHT22;14878;50.778;0.258;2022-10-16T04:24:13;13.50;99.90
27423;DHT22;14878;50.778;0.258;2022-10-16T04:25:13;13.30;99.90
27423;DHT22;14878;50.778;0.258;2022-10-16T04:26:14;13.40;99.90
27423;DHT22;14878;50.778;0.258;2022-10-16T04:27:15;12.70;99.90
27423;DHT22;14878;50.778;0.258;2022-10-16T04:28:16;13.40;99.90
27423;DHT22;14878;50.778;0.258;2022-10-16T04:29:17;13.40;99.90
27423;DHT22;14878;50.778;0.258;2022-10-16T04:30:17;13.40;99.90
27423;DHT22;14878;50.778;0.258;2022-10-16T04:31:18;13.40;99.90
27423;DHT22;14878;50.778;0.258;2022-10-16T04:32:19;13.40;99.90
27423;DHT22;14878;50.778;0.258;2022-10-16T04:33:20;13.70;99.90
27423;DHT22;14878;50.778;0.258;2022-10-16T04:34:21;13.50;99.90
27423;DHT22;14878;50.778;0.258;2022-10-16T04:35:22;13.50;99.90
27423;DHT22;14878;50.778;0.258;2022-10-16T04:36:23;13.50;99.90
27423;DHT22;14878;50.778;0.258;2022-10-16T04:37:24;13.50;99.90
27423;DHT22;14878;50.778;0.258;2022-10-16T04:38:25;13.50;99.90
27423;DHT22;14878;50.778;0.258;2022-10-16T04:39:26;13.50;99.90
27423;DHT22;14878;50.778;0.258;2022-10-16T04:40:27;13.50;99.90
27423;DHT22;14878;50.778;0.258;2022-10-16T04:41:28;13.40;99.90
27423;DHT22;14878;50.778;0.258;2022-10-16T04:42:28;13.50;99.90
27423;DHT22;14878;50.778;0.258;2022-10-16T04:43:29;13.40;99.90
27423;DHT22;14878;50.778;0.258;2022-10-16T04:44:30;13.50;99.90
27423;DHT22;14878;50.778;0.258;2022-10-16T04:45:31;13.50;99.90
27423;DHT22;14878;50.778;0.258;2022-10-16T04:46:32;13.50;99.90
27423;DHT22;14878;50.778;0.258;2022-10-16T04:47:33;13.60;99.90
27423;DHT22;14878;50.778;0.258;2022-10-16T04:48:33;13.70;99.90
27423;DHT22;14878;50.778;0.258;2022-10-16T04:49:34;13.90;99.90
27423;DHT22;14878;50.778;0.258;2022-10-16T04:50:35;13.70;99.90
27423;DHT22;14878;50.778;0.258;2022-10-16T04:51:36;13.70;99.90
27423;DHT22;14878;50.778;0.258;2022-10-16T04:52:36;13.70;99.90
27423;DHT22;14878;50.778;0.258;2022-10-16T04:53:37;13.70;99.90
27423;DHT22;14878;50.778;0.258;2022-10-16T04:54:38;13.60;99.90
27423;DHT22;14878;50.778;0.258;2022-10-16T04:55:39;13.60;99.90
27423;DHT22;14878;50.778;0.258;2022-10-16T04:56:40;13.60;99.90
27423;DHT22;14878;50.778;0.258;2022-10-16T04:57:47;12.60;99.90
27423;DHT22;14878;50.778;0.258;2022-10-16T04:58:47;13.70;99.90
27423;DHT22;14878;50.778;0.258;2022-10-16T04:59:48;13.70;99.90
27423;DHT22;14878;50.778;0.258;2022-10-16T05:00:49;13.70;99.90
27423;DHT22;14878;50.778;0.258;2022-10-16T05:01:50;13.70;99.90
27423;DHT22;14878;50.778;0.258;2022-10-16T05:02:51;13.70;99.90
27423;DHT22;14878;50.778;0.258;2022-10-16T05:03:52;13.80;99.90
27423;DHT22;14878;50.778;0.258;2022-10-16T05:04:52;13.60;99.90
27423;DHT22;14878;50.778;0.258;2022-10-16T05:05:53;13.70;99.90
27423;DHT22;14878;50.778;0.258;2022-10-16T05:06:54;13.70;99.90
27423;DHT22;14878;50.778;0.258;2022-10-16T05:07:55;13.70;99.90
27423;DHT22;14878;50.778;0.258;2022-10-16T05:08:55;13.80;99.90
27423;DHT22;14878;50.778;0.258;2022-10-16T05:09:56;12.70;99.90
27423;DHT22;14878;50.778;0.258;2022-10-16T05:10:57;13.70;99.90
27423;DHT22;14878;50.778;0.258;2022-10-16T05:11:57;13.70;99.90
27423;DHT22;14878;50.778;0.258;2022-10-16T05:12:58;13.60;99.90
27423;DHT22;14878;50.778;0.258;2022-10-16T05:13:59;13.60;99.90
27423;DHT22;14878;50.778;0.258;2022-10-16T05:15:00;13.70;99.90
27423;DHT22;14878;50.778;0.258;2022-10-16T05:16:01;13.70;99.90
27423;DHT22;14878;50.778;0.258;2022-10-16T05:17:01;13.70;99.90
27423;DHT22;14878;50.778;0.258;2022-10-16T05:18:02;13.60;99.90
27423;DHT22;14878;50.778;0.258;2022-10-16T05:19:03;13.80;99.90
27423;DHT22;14878;50.778;0.258;2022-10-16T05:20:04;13.70;99.90
27423;DHT22;14878;50.778;0.258;2022-10-16T05:21:05;13.70;99.90
27423;DHT22;14878;50.778;0.258;2022-10-16T05:22:06;13.80;99.90
27423;DHT22;14878;50.778;0.258;2022-10-16T05:23:08;13.70;99.90
27423;DHT22;14878;50.778;0.258;2022-10-16T05:24:10;13.80;99.90
27423;DHT22;14878;50.778;0.258;2022-10-16T05:25:11;13.80;99.90
27423;DHT22;14878;50.778;0.258;2022-10-16T05:26:12;13.80;99.90
27423;DHT22;14878;50.778;0.258;2022-10-16T05:27:12;16.20;99.90
27423;DHT22;14878;50.778;0.258;2022-10-16T05:28:19;13.70;99.90
27423;DHT22;14878;50.778;0.258;2022-10-16T05:29:20;13.80;99.90
27423;DHT22;14878;50.778;0.258;2022-10-16T05:30:21;13.90;99.90
27423;DHT22;14878;50.778;0.258;2022-10-16T05:31:22;14.00;99.90
27423;DHT22;14878;50.778;0.258;2022-10-16T05:32:23;13.70;99.90
27423;DHT22;14878;50.778;0.258;2022-10-16T05:33:25;13.70;99.90
27423;DHT22;14878;50.778;0.258;2022-10-16T05:34:25;11.90;99.90
27423;DHT22;14878;50.778;0.258;2022-10-16T05:35:26;13.70;99.90
27423;DHT22;14878;50.778;0.258;2022-10-16T05:36:27;13.60;99.90
27423;DHT22;14878;50.778;0.258;2022-10-16T05:37:28;13.70;99.90
27423;DHT22;14878;50.778;0.258;2022-10-16T05:38:29;13.60;99.90
27423;DHT22;14878;50.778;0.258;2022-10-16T05:39:30;13.60;99.90
27423;DHT22;14878;50.778;0.258;2022-10-16T05:40:30;13.70;99.90
27423;DHT22;14878;50.778;0.258;2022-10-16T05:41:31;13.70;99.90
27423;DHT22;14878;50.778;0.258;2022-10-16T05:42:32;13.70;99.90
27423;DHT22;14878;50.778;0.258;2022-10-16T05:43:33;13.80;99.90
27423;DHT22;14878;50.778;0.258;2022-10-16T05:44:34;13.70;99.90
27423;DHT22;14878;50.778;0.258;2022-10-16T05:45:34;13.80;99.90
27423;DHT22;14878;50.778;0.258;2022-10-16T05:46:35;13.80;99.90
27423;DHT22;14878;50.778;0.258;2022-10-16T05:47:36;13.80;99.90
27423;DHT22;14878;50.778;0.258;2022-10-16T05:48:37;13.80;99.90
27423;DHT22;14878;50.778;0.258;2022-10-16T05:49:37;14.10;99.90
27423;DHT22;14878;50.778;0.258;2022-10-16T05:50:38;13.90;99.90
27423;DHT22;14878;50.778;0.258;2022-10-16T05:51:39;13.90;99.90
27423;DHT22;14878;50.778;0.258;2022-10-16T05:52:40;13.70;99.90
27423;DHT22;14878;50.778;0.258;2022-10-16T05:53:41;13.70;99.90
27423;DHT22;14878;50.778;0.258;2022-10-16T05:54:41;13.90;99.90
27423;DHT22;14878;50.778;0.258;2022-10-16T05:55:42;13.40;99.90
27423;DHT22;14878;50.778;0.258;2022-10-16T05:56:43;13.70;99.90
27423;DHT22;14878;50.778;0.258;2022-10-16T05:57:44;13.70;99.90
27423;DHT22;14878;50.778;0.258;2022-10-16T05:58:45;13.70;99.90
27423;DHT22;14878;50.778;0.258;2022-10-16T05:59:45;13.70;99.90
27423;DHT22;14878;50.778;0.258;2022-10-16T06:00:53;13.60;99.90
27423;DHT22;14878;50.778;0.258;2022-10-16T06:01:54;13.70;99.90
27423;DHT22;14878;50.778;0.258;2022-10-16T06:02:55;13.80;99.90
27423;DHT22;14878;50.778;0.258;2022-10-16T06:03:57;13.80;99.90
27423;DHT22;14878;50.778;0.258;2022-10-16T06:04:58;13.70;99.90
27423;DHT22;14878;50.778;0.258;2022-10-16T06:05:58;13.70;99.90
27423;DHT22;14878;50.778;0.258;2022-10-16T06:06:59;13.70;99.90
27423;DHT22;14878;50.778;0.258;2022-10-16T06:08:03;14.00;99.90
27423;DHT22;14878;50.778;0.258;2022-10-16T06:09:04;13.70;99.90
27423;DHT22;14878;50.778;0.258;2022-10-16T06:10:05;13.70;99.90
27423;DHT22;14878;50.778;0.258;2022-10-16T06:11:08;13.70;99.90
27423;DHT22;14878;50.778;0.258;2022-10-16T06:12:09;13.50;99.90
27423;DHT22;14878;50.778;0.258;2022-10-16T06:13:10;13.60;99.90
27423;DHT22;14878;50.778;0.258;2022-10-16T06:14:11;13.70;99.90
27423;DHT22;14878;50.778;0.258;2022-10-16T06:15:12;13.60;99.90
27423;DHT22;14878;50.778;0.258;2022-10-16T06:16:13;13.50;99.90
27423;DHT22;14878;50.778;0.258;2022-10-16T06:17:14;13.70;99.90
27423;DHT22;14878;50.778;0.258;2022-10-16T06:18:15;13.60;99.90
27423;DHT22;14878;50.778;0.258;2022-10-16T06:19:16;13.70;99.90
27423;DHT22;14878;50.778;0.258;2022-10-16T06:20:17;13.70;99.90
27423;DHT22;14878;50.778;0.258;2022-10-16T06:21:20;13.10;99.90
27423;DHT22;14878;50.778;0.258;2022-10-16T06:22:22;13.70;99.90
27423;DHT22;14878;50.778;0.258;2022-10-16T06:23:23;13.70;99.90
27423;DHT22;14878;50.778;0.258;2022-10-16T06:24:25;13.60;99.90
27423;DHT22;14878;50.778;0.258;2022-10-16T06:25:25;13.60;99.90
27423;DHT22;14878;50.778;0.258;2022-10-16T06:26:28;13.50;99.90
27423;DHT22;14878;50.778;0.258;2022-10-16T06:27:29;13.00;99.90
27423;DHT22;14878;50.778;0.258;2022-10-16T06:28:30;13.60;99.90
27423;DHT22;14878;50.778;0.258;2022-10-16T06:29:31;13.60;99.90
27423;DHT22;14878;50.778;0.258;2022-10-16T06:30:31;13.50;99.90
27423;DHT22;14878;50.778;0.258;2022-10-16T06:31:32;13.50;99.90
27423;DHT22;14878;50.778;0.258;2022-10-16T06:32:33;13.60;99.90
27423;DHT22;14878;50.778;0.258;2022-10-16T06:33:35;13.60;99.90
27423;DHT22;14878;50.778;0.258;2022-10-16T06:34:36;13.60;99.90
27423;DHT22;14878;50.778;0.258;2022-10-16T06:35:37;13.50;99.90
27423;DHT22;14878;50.778;0.258;2022-10-16T06:36:38;13.60;99.90
27423;DHT22;14878;50.778;0.258;2022-10-16T06:37:39;13.60;99.90
27423;DHT22;14878;50.778;0.258;2022-10-16T06:38:40;13.70;99.90
27423;DHT22;14878;50.778;0.258;2022-10-16T06:39:41;13.50;99.90
27423;DHT22;14878;50.778;0.258;2022-10-16T06:40:42;13.70;99.90
27423;DHT22;14878;50.778;0.258;2022-10-16T06:41:43;13.70;99.90
27423;DHT22;14878;50.778;0.258;2022-10-16T06:42:43;13.80;99.90
27423;DHT22;14878;50.778;0.258;2022-10-16T06:43:45;13.80;99.90
27423;DHT22;14878;50.778;0.258;2022-10-16T06:44:46;13.90;99.90
27423;DHT22;14878;50.778;0.258;2022-10-16T06:45:54;13.80;99.90
27423;DHT22;14878;50.778;0.258;2022-10-16T06:46:55;13.90;99.90
27423;DHT22;14878;50.778;0.258;2022-10-16T06:47:55;14.00;99.90
27423;DHT22;14878;50.778;0.258;2022-10-16T06:48:56;12.50;99.90
27423;DHT22;14878;50.778;0.258;2022-10-16T06:49:57;14.00;99.90
27423;DHT22;14878;50.778;0.258;2022-10-16T06:51:03;14.10;99.90